createdAt,value
2023-05-25T00:00:00.861Z,12.80
2023-05-25T00:05:02.545Z,12.78
2023-05-25T00:10:06.258Z,12.73
2023-05-25T00:15:08.455Z,12.68
2023-05-25T00:20:11.006Z,12.66
2023-05-25T00:25:12.820Z,12.66
2023-05-25T00:30:15.066Z,12.65
2023-05-25T00:35:16.812Z,12.60
2023-05-25T00:40:22.048Z,12.56
2023-05-25T00:45:23.669Z,12.50
2023-05-25T00:50:38.099Z,12.51
2023-05-25T00:55:51.616Z,12.48
2023-05-25T01:00:58.946Z,12.44
2023-05-25T01:06:02.655Z,12.39
2023-05-25T01:11:06.618Z,12.40
2023-05-25T01:16:09.704Z,12.37
2023-05-25T01:21:20.486Z,12.38
2023-05-25T01:26:27.153Z,12.34
2023-05-25T01:31:30.352Z,12.32
2023-05-25T01:36:33.310Z,12.26
2023-05-25T01:41:34.942Z,12.19
2023-05-25T01:46:41.165Z,12.17
2023-05-25T01:52:11.935Z,12.16
2023-05-25T01:57:16.854Z,12.14
2023-05-25T02:02:21.014Z,12.09
2023-05-25T02:07:23.268Z,12.06
2023-05-25T02:12:25.457Z,12.08
2023-05-25T02:17:28.789Z,12.10
2023-05-25T02:22:31.507Z,12.07
2023-05-25T02:27:33.362Z,12.08
2023-05-25T02:32:35.949Z,12.14
2023-05-25T02:37:37.957Z,12.13
2023-05-25T02:42:39.824Z,12.12
2023-05-25T02:47:41.488Z,12.10
2023-05-25T02:52:43.819Z,12.08
2023-05-25T02:57:45.612Z,12.04
2023-05-25T03:02:58.265Z,12.02
2023-05-25T03:08:00.683Z,12.01
2023-05-25T03:13:05.755Z,12.01
2023-05-25T03:18:08.035Z,11.98
2023-05-25T03:23:12.813Z,11.98
2023-05-25T03:28:14.892Z,11.94
2023-05-25T03:33:16.634Z,11.91
2023-05-25T03:38:22.455Z,11.88
2023-05-25T03:43:24.308Z,11.84
2023-05-25T03:48:26.342Z,11.85
2023-05-25T03:53:28.220Z,11.83
2023-05-25T03:58:29.991Z,11.86
2023-05-25T04:03:33.033Z,11.84
2023-05-25T04:08:34.989Z,11.84
2023-05-25T04:13:36.917Z,11.87
2023-05-25T04:18:39.709Z,11.87
2023-05-25T04:23:41.456Z,11.78
2023-05-25T04:28:43.924Z,11.77
2023-05-25T04:33:56.243Z,11.82
2023-05-25T04:39:07.478Z,11.80
2023-05-25T04:44:15.834Z,11.80
2023-05-25T04:49:21.534Z,11.88
2023-05-25T04:54:23.345Z,11.89
2023-05-25T04:59:25.697Z,11.96
2023-05-25T05:04:27.411Z,11.97
2023-05-25T05:09:29.770Z,11.99
2023-05-25T05:14:34.116Z,12.10
2023-05-25T05:19:36.051Z,12.20
2023-05-25T05:24:38.933Z,12.28
2023-05-25T05:29:40.991Z,12.24
2023-05-25T05:34:42.934Z,12.25
2023-05-25T05:39:56.608Z,12.20
2023-05-25T05:44:58.508Z,12.01
2023-05-25T05:50:00.277Z,12.15
2023-05-25T05:55:03.876Z,12.40
2023-05-25T06:00:07.085Z,12.32
2023-05-25T06:05:20.841Z,12.31
2023-05-25T06:10:22.997Z,12.24
2023-05-25T06:15:26.038Z,12.34
2023-05-25T06:20:31.997Z,12.54
2023-05-25T06:25:33.736Z,12.63
2023-05-25T06:30:35.635Z,12.55
2023-05-25T06:35:38.361Z,12.36
2023-05-25T06:40:40.320Z,12.88
2023-05-25T06:45:42.454Z,13.09
2023-05-25T06:50:46.129Z,13.12
2023-05-25T06:55:49.960Z,13.32
2023-05-25T07:00:51.616Z,13.10
2023-05-25T07:05:53.297Z,13.16
2023-05-25T07:10:54.947Z,13.39
2023-05-25T07:15:56.839Z,13.58
2023-05-25T07:20:59.387Z,13.53
2023-05-25T07:26:01.668Z,13.50
2023-05-25T07:31:04.644Z,13.53
2023-05-25T07:36:06.703Z,13.87
2023-05-25T07:41:08.670Z,13.71
2023-05-25T07:46:11.056Z,13.96
2023-05-25T07:51:12.770Z,14.29
2023-05-25T07:56:14.629Z,14.09
2023-05-25T08:01:16.349Z,13.77
2023-05-25T08:06:20.845Z,13.95
2023-05-25T08:11:27.703Z,14.04
2023-05-25T08:16:29.517Z,14.10
2023-05-25T08:21:35.060Z,14.27
2023-05-25T08:26:53.756Z,14.34
2023-05-25T08:31:56.268Z,14.40
2023-05-25T08:36:58.071Z,14.40
2023-05-25T08:42:00.015Z,14.32
2023-05-25T08:47:07.007Z,14.66
2023-05-25T08:52:13.509Z,14.65
2023-05-25T08:57:20.489Z,14.72
2023-05-25T09:02:46.567Z,14.67
2023-05-25T09:07:51.681Z,14.85
2023-05-25T09:12:55.059Z,14.70
2023-05-25T09:17:56.978Z,14.48
2023-05-25T09:23:00.624Z,14.31
2023-05-25T09:28:10.114Z,14.43
2023-05-25T09:33:24.088Z,14.48
2023-05-25T09:38:26.074Z,14.39
2023-05-25T09:43:40.627Z,14.52
2023-05-25T09:48:45.651Z,14.42
2023-05-25T09:53:52.567Z,14.45
2023-05-25T09:58:54.410Z,14.49
2023-05-25T10:04:04.813Z,14.46
2023-05-25T10:09:09.026Z,14.44
2023-05-25T10:14:14.731Z,14.44
2023-05-25T10:19:23.089Z,14.48
2023-05-25T10:24:34.514Z,14.46
2023-05-25T10:29:39.802Z,14.29
2023-05-25T10:34:42.227Z,14.13
2023-05-25T10:39:45.547Z,13.98
2023-05-25T10:44:48.009Z,14.24
2023-05-25T10:49:55.904Z,14.19
2023-05-25T10:55:01.854Z,14.30
2023-05-25T11:00:08.949Z,14.23
2023-05-25T11:05:26.060Z,14.39
2023-05-25T11:10:55.335Z,14.39
2023-05-25T11:16:22.196Z,14.50
2023-05-25T11:21:32.670Z,14.46
2023-05-25T11:26:34.819Z,14.45
2023-05-25T11:31:41.497Z,14.68
2023-05-25T11:36:45.698Z,14.71
2023-05-25T11:42:02.164Z,14.77
2023-05-25T11:47:09.825Z,14.78
2023-05-25T11:52:13.432Z,14.64
2023-05-25T11:57:19.102Z,14.36
2023-05-25T12:02:21.830Z,15.02
2023-05-25T12:07:24.324Z,15.63
2023-05-25T12:12:26.188Z,16.04
2023-05-25T12:17:28.122Z,15.83
2023-05-25T12:22:29.927Z,15.55
2023-05-25T12:27:34.118Z,15.59
2023-05-25T12:32:51.800Z,16.27
2023-05-25T12:38:19.880Z,16.50
2023-05-25T12:43:21.759Z,15.77
2023-05-25T12:48:27.902Z,16.18
2023-05-25T12:53:31.251Z,16.44
2023-05-25T12:58:33.319Z,16.85
2023-05-25T13:03:35.004Z,17.04
2023-05-25T13:08:36.878Z,16.56
2023-05-25T13:13:38.634Z,16.97
2023-05-25T13:18:40.395Z,17.38
2023-05-25T13:23:42.074Z,17.96
2023-05-25T13:28:43.895Z,18.23
2023-05-25T13:33:45.607Z,18.04
2023-05-25T13:38:47.218Z,18.47
2023-05-25T13:43:50.511Z,18.62
2023-05-25T13:48:52.171Z,18.58
2023-05-25T13:53:54.077Z,18.32
2023-05-25T13:58:55.746Z,18.26
2023-05-25T14:03:59.810Z,18.63
2023-05-25T14:09:01.721Z,18.83
2023-05-25T14:14:04.347Z,19.13
2023-05-25T14:19:07.106Z,19.24
2023-05-25T14:24:08.979Z,19.44
2023-05-25T14:29:12.976Z,19.20
2023-05-25T14:34:14.783Z,19.08
2023-05-25T14:39:17.369Z,19.11
2023-05-25T14:44:19.750Z,19.28
2023-05-25T14:49:24.803Z,18.90
2023-05-25T14:54:28.602Z,19.40
2023-05-25T14:59:30.301Z,19.55
2023-05-25T15:04:32.032Z,19.39
2023-05-25T15:09:33.979Z,19.47
2023-05-25T15:14:39.869Z,19.69
2023-05-25T15:19:41.533Z,19.24
2023-05-25T15:24:43.154Z,19.06
2023-05-25T15:29:45.975Z,19.37
2023-05-25T15:34:47.747Z,19.08
2023-05-25T15:39:49.740Z,18.49
2023-05-25T15:44:52.449Z,19.11
2023-05-25T15:49:54.134Z,18.85
2023-05-25T15:54:55.877Z,19.13
2023-05-25T15:59:57.506Z,19.17
2023-05-25T16:04:59.228Z,18.64
2023-05-25T16:10:00.934Z,18.42
2023-05-25T16:15:02.494Z,18.44
2023-05-25T16:20:04.902Z,18.68
2023-05-25T16:25:07.211Z,18.07
2023-05-25T16:30:11.089Z,18.11
2023-05-25T16:35:14.312Z,18.13
2023-05-25T16:40:16.505Z,18.29
2023-05-25T16:45:21.032Z,18.43
2023-05-25T16:50:22.741Z,18.12
2023-05-25T16:55:25.493Z,17.18
2023-05-25T17:00:27.176Z,17.44
2023-05-25T17:05:28.825Z,17.33
2023-05-25T17:10:30.456Z,17.35
2023-05-25T17:15:32.124Z,17.36
2023-05-25T17:20:33.962Z,16.98
2023-05-25T17:25:35.824Z,16.92
2023-05-25T17:30:37.445Z,16.25
2023-05-25T17:35:39.564Z,16.70
2023-05-25T17:40:41.267Z,16.59
2023-05-25T17:45:43.274Z,16.46
2023-05-25T17:50:45.296Z,16.42
2023-05-25T17:55:47.355Z,15.78
2023-05-25T18:00:52.653Z,15.48
2023-05-25T18:05:54.471Z,15.44
2023-05-25T18:10:56.378Z,15.17
2023-05-25T18:15:58.216Z,15.24
2023-05-25T18:21:00.244Z,15.34
2023-05-25T18:26:01.992Z,15.18
2023-05-25T18:31:03.727Z,14.54
2023-05-25T18:36:05.604Z,14.48
2023-05-25T18:41:07.286Z,14.54
2023-05-25T18:46:08.984Z,14.44
2023-05-25T18:51:11.093Z,14.04
2023-05-25T18:56:12.747Z,13.74
2023-05-25T19:01:14.451Z,13.84
2023-05-25T19:06:16.205Z,13.99
2023-05-25T19:11:20.039Z,13.85
2023-05-25T19:16:21.712Z,13.62
2023-05-25T19:21:23.406Z,13.39
2023-05-25T19:26:26.138Z,13.28
2023-05-25T19:31:27.791Z,13.23
2023-05-25T19:36:29.756Z,13.31
2023-05-25T19:41:31.559Z,13.30
2023-05-25T19:46:33.721Z,13.42
2023-05-25T19:51:36.796Z,12.98
2023-05-25T19:56:38.438Z,12.96
2023-05-25T20:01:40.236Z,12.84
2023-05-25T20:06:41.917Z,12.70
2023-05-25T20:11:43.894Z,12.87
2023-05-25T20:16:45.766Z,12.64
2023-05-25T20:21:49.633Z,12.66
2023-05-25T20:26:56.728Z,12.46
2023-05-25T20:31:58.762Z,12.42
2023-05-25T20:37:01.042Z,12.79
2023-05-25T20:42:02.884Z,12.64
2023-05-25T20:47:05.203Z,12.72
2023-05-25T20:52:08.230Z,12.65
2023-05-25T20:57:11.975Z,12.73
2023-05-25T21:02:13.770Z,12.39
2023-05-25T21:07:15.748Z,12.29
2023-05-25T21:12:17.494Z,12.29
2023-05-25T21:17:20.892Z,12.26
2023-05-25T21:22:22.997Z,12.17
2023-05-25T21:27:24.715Z,12.22
2023-05-25T21:32:26.403Z,12.12
2023-05-25T21:37:28.288Z,12.06
2023-05-25T21:42:29.979Z,12.02
2023-05-25T21:47:31.620Z,11.87
2023-05-25T21:52:33.312Z,11.95
2023-05-25T21:57:34.977Z,11.77
2023-05-25T22:02:36.676Z,11.70
2023-05-25T22:07:39.547Z,11.65
2023-05-25T22:12:41.152Z,11.67
2023-05-25T22:17:42.864Z,11.72
2023-05-25T22:22:45.000Z,11.48
2023-05-25T22:27:46.713Z,11.36
2023-05-25T22:32:48.361Z,11.20
2023-05-25T22:37:50.580Z,11.21
2023-05-25T22:42:52.304Z,11.12
2023-05-25T22:47:54.463Z,11.19
2023-05-25T22:52:56.199Z,11.20
2023-05-25T22:57:57.852Z,11.07
2023-05-25T23:03:00.998Z,11.28
2023-05-25T23:08:04.751Z,11.25
2023-05-25T23:13:07.610Z,11.24
2023-05-25T23:18:09.303Z,11.07
2023-05-25T23:23:10.973Z,11.31
2023-05-25T23:28:12.619Z,11.11
2023-05-25T23:33:14.307Z,11.08
2023-05-25T23:38:16.204Z,10.86
2023-05-25T23:43:17.978Z,10.72
2023-05-25T23:48:20.107Z,10.61
2023-05-25T23:53:21.769Z,10.56
2023-05-25T23:58:23.843Z,10.73
